sensor_id;sensor_type;location;lat;lon;timestamp;pressure;altitude;pressure_sealevel;temperature;humidity
30708;BME280;17458;48.958;8.284;2023-05-10T00:00:35;99785.00;;;16.90;82.46
30708;BME280;17458;48.958;8.284;2023-05-10T00:03:19;99793.56;;;16.66;83.01
30708;BME280;17458;48.958;8.284;2023-05-10T00:06:03;99786.47;;;16.71;82.98
30708;BME280;17458;48.958;8.284;2023-05-10T00:08:47;99782.09;;;16.75;82.70
30708;BME280;17458;48.958;8.284;2023-05-10T00:11:31;99783.81;;;16.70;83.06
30708;BME280;17458;48.958;8.284;2023-05-10T00:14:15;99780.88;;;16.57;82.96
30708;BME280;17458;48.958;8.284;2023-05-10T00:16:59;99787.66;;;16.36;85.12
30708;BME280;17458;48.958;8.284;2023-05-10T00:19:43;99789.81;;;16.58;83.76
30708;BME280;17458;48.958;8.284;2023-05-10T00:22:27;99792.63;;;16.62;83.27
30708;BME280;17458;48.958;8.284;2023-05-10T00:25:11;99790.69;;;16.55;83.51
30708;BME280;17458;48.958;8.284;2023-05-10T00:27:54;99797.50;;;16.37;84.72
30708;BME280;17458;48.958;8.284;2023-05-10T00:30:39;99796.81;;;16.48;84.42
30708;BME280;17458;48.958;8.284;2023-05-10T00:33:23;99795.13;;;16.56;83.02
30708;BME280;17458;48.958;8.284;2023-05-10T00:36:07;99791.75;;;16.17;84.36
30708;BME280;17458;48.958;8.284;2023-05-10T00:38:51;99795.75;;;16.39;84.42
30708;BME280;17458;48.958;8.284;2023-05-10T00:41:35;99804.97;;;16.54;83.86
30708;BME280;17458;48.958;8.284;2023-05-10T00:44:20;99806.44;;;16.37;84.24
30708;BME280;17458;48.958;8.284;2023-05-10T00:47:05;99805.78;;;16.50;84.08
30708;BME280;17458;48.958;8.284;2023-05-10T00:49:49;99800.47;;;16.53;84.42
30708;BME280;17458;48.958;8.284;2023-05-10T00:52:33;99806.00;;;16.62;83.95
30708;BME280;17458;48.958;8.284;2023-05-10T00:55:19;99796.09;;;16.60;84.16
30708;BME280;17458;48.958;8.284;2023-05-10T00:58:04;99796.03;;;16.55;84.63
30708;BME280;17458;48.958;8.284;2023-05-10T01:00:49;99804.94;;;16.53;84.77
30708;BME280;17458;48.958;8.284;2023-05-10T01:03:33;99804.88;;;16.50;84.60
30708;BME280;17458;48.958;8.284;2023-05-10T01:06:17;99807.63;;;16.53;84.74
30708;BME280;17458;48.958;8.284;2023-05-10T01:09:01;99802.16;;;16.48;84.75
30708;BME280;17458;48.958;8.284;2023-05-10T01:11:46;99798.72;;;16.57;83.51
30708;BME280;17458;48.958;8.284;2023-05-10T01:14:30;99806.59;;;16.46;85.25
30708;BME280;17458;48.958;8.284;2023-05-10T01:17:15;99799.78;;;16.63;84.06
30708;BME280;17458;48.958;8.284;2023-05-10T01:20:00;99793.41;;;16.60;83.99
30708;BME280;17458;48.958;8.284;2023-05-10T01:26:17;99797.41;;;16.82;83.30
30708;BME280;17458;48.958;8.284;2023-05-10T01:29:40;99802.81;;;16.35;84.93
30708;BME280;17458;48.958;8.284;2023-05-10T01:32:39;99796.94;;;16.57;84.77
30708;BME280;17458;48.958;8.284;2023-05-10T01:35:32;99798.00;;;16.64;84.56
30708;BME280;17458;48.958;8.284;2023-05-10T01:38:46;99791.56;;;16.54;84.64
30708;BME280;17458;48.958;8.284;2023-05-10T01:41:54;99795.53;;;16.76;83.61
30708;BME280;17458;48.958;8.284;2023-05-10T01:44:48;99797.22;;;16.71;84.39
30708;BME280;17458;48.958;8.284;2023-05-10T01:48:06;99801.66;;;16.68;84.42
30708;BME280;17458;48.958;8.284;2023-05-10T01:50:52;99796.91;;;16.54;84.75
30708;BME280;17458;48.958;8.284;2023-05-10T01:53:38;99804.69;;;16.90;83.15
30708;BME280;17458;48.958;8.284;2023-05-10T01:56:24;99803.28;;;16.61;84.88
30708;BME280;17458;48.958;8.284;2023-05-10T01:59:12;99808.38;;;16.46;86.34
30708;BME280;17458;48.958;8.284;2023-05-10T02:02:00;99803.75;;;16.37;86.37
30708;BME280;17458;48.958;8.284;2023-05-10T02:04:45;99803.28;;;16.61;84.41
30708;BME280;17458;48.958;8.284;2023-05-10T02:07:30;99802.00;;;16.90;83.30
30708;BME280;17458;48.958;8.284;2023-05-10T02:10:15;99807.59;;;16.51;84.52
30708;BME280;17458;48.958;8.284;2023-05-10T02:13:02;99806.41;;;16.87;82.48
30708;BME280;17458;48.958;8.284;2023-05-10T02:15:48;99805.19;;;16.67;83.16
30708;BME280;17458;48.958;8.284;2023-05-10T02:18:34;99813.53;;;16.85;82.19
30708;BME280;17458;48.958;8.284;2023-05-10T02:21:21;99818.56;;;16.65;83.13
30708;BME280;17458;48.958;8.284;2023-05-10T02:24:06;99818.66;;;16.71;82.59
30708;BME280;17458;48.958;8.284;2023-05-10T02:26:53;99816.84;;;16.69;82.78
30708;BME280;17458;48.958;8.284;2023-05-10T02:29:39;99825.75;;;16.66;82.48
30708;BME280;17458;48.958;8.284;2023-05-10T02:32:26;99820.50;;;16.74;82.15
30708;BME280;17458;48.958;8.284;2023-05-10T02:35:11;99824.13;;;16.77;81.19
30708;BME280;17458;48.958;8.284;2023-05-10T02:37:57;99825.00;;;16.76;82.35
30708;BME280;17458;48.958;8.284;2023-05-10T02:40:42;99818.44;;;16.60;82.22
30708;BME280;17458;48.958;8.284;2023-05-10T02:43:30;99821.72;;;16.44;82.79
30708;BME280;17458;48.958;8.284;2023-05-10T02:46:16;99818.44;;;16.60;82.03
30708;BME280;17458;48.958;8.284;2023-05-10T02:49:00;99820.59;;;16.78;81.25
30708;BME280;17458;48.958;8.284;2023-05-10T02:51:50;99829.63;;;16.85;80.84
30708;BME280;17458;48.958;8.284;2023-05-10T02:54:41;99827.19;;;16.49;82.09
30708;BME280;17458;48.958;8.284;2023-05-10T02:57:33;99829.16;;;16.59;81.66
30708;BME280;17458;48.958;8.284;2023-05-10T03:00:18;99830.81;;;16.51;81.27
30708;BME280;17458;48.958;8.284;2023-05-10T03:03:02;99828.81;;;16.39;82.30
30708;BME280;17458;48.958;8.284;2023-05-10T03:05:46;99816.09;;;16.27;82.25
30708;BME280;17458;48.958;8.284;2023-05-10T03:08:30;99827.44;;;16.13;83.26
30708;BME280;17458;48.958;8.284;2023-05-10T03:14:57;99826.28;;;16.02;84.27
30708;BME280;17458;48.958;8.284;2023-05-10T03:20:35;99832.28;;;15.88;85.26
30708;BME280;17458;48.958;8.284;2023-05-10T03:23:31;99824.53;;;16.04;83.97
30708;BME280;17458;48.958;8.284;2023-05-10T03:26:24;99836.78;;;15.91;85.55
30708;BME280;17458;48.958;8.284;2023-05-10T03:29:14;99837.59;;;15.87;84.91
30708;BME280;17458;48.958;8.284;2023-05-10T03:31:59;99837.69;;;15.91;84.91
30708;BME280;17458;48.958;8.284;2023-05-10T03:34:45;99841.44;;;16.01;84.86
30708;BME280;17458;48.958;8.284;2023-05-10T03:37:29;99837.69;;;15.91;84.18
30708;BME280;17458;48.958;8.284;2023-05-10T03:40:13;99848.78;;;16.10;83.77
30708;BME280;17458;48.958;8.284;2023-05-10T03:42:59;99852.19;;;16.03;84.18
30708;BME280;17458;48.958;8.284;2023-05-10T03:45:44;99856.38;;;15.88;84.75
30708;BME280;17458;48.958;8.284;2023-05-10T03:48:28;99846.97;;;16.09;84.24
30708;BME280;17458;48.958;8.284;2023-05-10T03:51:12;99859.28;;;15.99;84.52
30708;BME280;17458;48.958;8.284;2023-05-10T03:53:57;99860.44;;;16.12;83.65
30708;BME280;17458;48.958;8.284;2023-05-10T03:56:41;99861.34;;;16.12;83.23
30708;BME280;17458;48.958;8.284;2023-05-10T03:59:25;99864.13;;;16.18;83.00
30708;BME280;17458;48.958;8.284;2023-05-10T04:02:10;99867.19;;;16.38;82.08
30708;BME280;17458;48.958;8.284;2023-05-10T04:04:54;99867.72;;;16.19;83.58
30708;BME280;17458;48.958;8.284;2023-05-10T04:07:37;99867.59;;;16.14;83.62
30708;BME280;17458;48.958;8.284;2023-05-10T04:10:22;99868.88;;;16.33;82.56
30708;BME280;17458;48.958;8.284;2023-05-10T04:13:05;99872.75;;;16.04;84.72
30708;BME280;17458;48.958;8.284;2023-05-10T04:15:49;99872.47;;;16.34;82.48
30708;BME280;17458;48.958;8.284;2023-05-10T04:18:34;99869.56;;;16.68;80.91
30708;BME280;17458;48.958;8.284;2023-05-10T04:21:18;99875.09;;;16.77;80.16
30708;BME280;17458;48.958;8.284;2023-05-10T04:24:02;99877.13;;;16.92;80.13
30708;BME280;17458;48.958;8.284;2023-05-10T04:26:46;99878.25;;;17.06;79.58
30708;BME280;17458;48.958;8.284;2023-05-10T04:29:29;99881.81;;;17.05;79.63
30708;BME280;17458;48.958;8.284;2023-05-10T04:32:13;99885.44;;;17.07;79.32
30708;BME280;17458;48.958;8.284;2023-05-10T04:35:00;99881.84;;;17.07;79.11
30708;BME280;17458;48.958;8.284;2023-05-10T04:37:46;99884.38;;;16.99;79.42
30708;BME280;17458;48.958;8.284;2023-05-10T04:40:30;99884.59;;;17.13;79.13
30708;BME280;17458;48.958;8.284;2023-05-10T04:43:14;99890.53;;;16.92;80.31
30708;BME280;17458;48.958;8.284;2023-05-10T04:45:58;99879.94;;;16.51;82.22
30708;BME280;17458;48.958;8.284;2023-05-10T04:48:42;99887.44;;;16.68;81.60
30708;BME280;17458;48.958;8.284;2023-05-10T04:51:26;99891.13;;;16.74;81.26
30708;BME280;17458;48.958;8.284;2023-05-10T04:54:10;99884.88;;;16.75;80.88
30708;BME280;17458;48.958;8.284;2023-05-10T04:56:54;99896.41;;;16.70;82.02
30708;BME280;17458;48.958;8.284;2023-05-10T04:59:39;99886.03;;;16.43;83.20
30708;BME280;17458;48.958;8.284;2023-05-10T05:02:22;99890.50;;;16.44;82.45
30708;BME280;17458;48.958;8.284;2023-05-10T05:05:07;99888.41;;;16.26;83.94
30708;BME280;17458;48.958;8.284;2023-05-10T05:07:51;99889.56;;;16.40;83.20
30708;BME280;17458;48.958;8.284;2023-05-10T05:10:35;99895.16;;;16.52;82.83
30708;BME280;17458;48.958;8.284;2023-05-10T05:13:19;99894.97;;;16.43;82.04
30708;BME280;17458;48.958;8.284;2023-05-10T05:16:03;99890.47;;;16.41;81.40
30708;BME280;17458;48.958;8.284;2023-05-10T05:18:47;99893.03;;;16.35;81.80
30708;BME280;17458;48.958;8.284;2023-05-10T05:21:31;99888.63;;;16.38;81.74
30708;BME280;17458;48.958;8.284;2023-05-10T05:24:16;99897.31;;;16.72;81.08
30708;BME280;17458;48.958;8.284;2023-05-10T05:27:00;99894.53;;;16.65;81.73
30708;BME280;17458;48.958;8.284;2023-05-10T05:29:44;99899.47;;;16.44;81.23
30708;BME280;17458;48.958;8.284;2023-05-10T05:32:28;99892.84;;;16.69;80.04
30708;BME280;17458;48.958;8.284;2023-05-10T05:35:12;99903.56;;;16.71;79.80
30708;BME280;17458;48.958;8.284;2023-05-10T05:37:56;99898.16;;;16.68;79.29
30708;BME280;17458;48.958;8.284;2023-05-10T05:44:14;99909.44;;;16.51;79.06
30708;BME280;17458;48.958;8.284;2023-05-10T05:46:58;99916.25;;;16.79;78.04
30708;BME280;17458;48.958;8.284;2023-05-10T05:49:42;99915.31;;;16.77;77.00
30708;BME280;17458;48.958;8.284;2023-05-10T05:52:26;99920.16;;;16.98;76.46
30708;BME280;17458;48.958;8.284;2023-05-10T05:55:10;99929.16;;;17.01;75.40
30708;BME280;17458;48.958;8.284;2023-05-10T05:57:54;99929.94;;;16.94;76.67
30708;BME280;17458;48.958;8.284;2023-05-10T06:00:38;99938.19;;;17.07;75.62
30708;BME280;17458;48.958;8.284;2023-05-10T06:03:22;99944.13;;;17.40;74.12
30708;BME280;17458;48.958;8.284;2023-05-10T06:06:06;99945.69;;;17.26;75.14
30708;BME280;17458;48.958;8.284;2023-05-10T06:08:50;99947.84;;;17.50;74.85
30708;BME280;17458;48.958;8.284;2023-05-10T06:11:34;99945.69;;;17.26;75.04
30708;BME280;17458;48.958;8.284;2023-05-10T06:14:20;99950.84;;;17.68;75.20
30708;BME280;17458;48.958;8.284;2023-05-10T06:17:04;99957.84;;;17.60;75.14
30708;BME280;17458;48.958;8.284;2023-05-10T06:19:48;99952.63;;;17.67;75.14
30708;BME280;17458;48.958;8.284;2023-05-10T06:22:32;99962.91;;;17.40;75.82
30708;BME280;17458;48.958;8.284;2023-05-10T06:25:16;99962.53;;;17.73;75.61
30708;BME280;17458;48.958;8.284;2023-05-10T06:28:01;99961.84;;;17.30;76.95
30708;BME280;17458;48.958;8.284;2023-05-10T06:30:45;99961.00;;;17.33;76.13
30708;BME280;17458;48.958;8.284;2023-05-10T06:33:29;99962.72;;;17.29;76.34
30708;BME280;17458;48.958;8.284;2023-05-10T06:36:13;99959.06;;;17.24;76.85
30708;BME280;17458;48.958;8.284;2023-05-10T06:38:57;99966.75;;;17.57;74.67
30708;BME280;17458;48.958;8.284;2023-05-10T06:41:41;99963.69;;;17.33;76.97
30708;BME280;17458;48.958;8.284;2023-05-10T06:44:25;99969.16;;;17.41;75.68
30708;BME280;17458;48.958;8.284;2023-05-10T06:47:09;99973.44;;;17.84;74.61
30708;BME280;17458;48.958;8.284;2023-05-10T06:49:53;99967.88;;;17.70;76.96
30708;BME280;17458;48.958;8.284;2023-05-10T06:52:37;99971.56;;;17.77;76.65
30708;BME280;17458;48.958;8.284;2023-05-10T06:55:21;99979.03;;;17.99;75.93
30708;BME280;17458;48.958;8.284;2023-05-10T06:58:05;99982.97;;;18.25;75.07
30708;BME280;17458;48.958;8.284;2023-05-10T07:00:49;99979.75;;;18.52;74.94
30708;BME280;17458;48.958;8.284;2023-05-10T07:03:33;99984.16;;;18.47;71.72
30708;BME280;17458;48.958;8.284;2023-05-10T07:06:17;99984.53;;;18.06;73.12
30708;BME280;17458;48.958;8.284;2023-05-10T07:09:01;99988.06;;;18.02;73.24
30708;BME280;17458;48.958;8.284;2023-05-10T07:11:46;99990.38;;;17.77;72.75
30708;BME280;17458;48.958;8.284;2023-05-10T07:14:30;99998.53;;;17.86;70.73
30708;BME280;17458;48.958;8.284;2023-05-10T07:17:14;99995.84;;;17.31;72.54
30708;BME280;17458;48.958;8.284;2023-05-10T07:19:59;99995.13;;;17.94;71.32
30708;BME280;17458;48.958;8.284;2023-05-10T07:22:43;99986.97;;;17.90;71.42
30708;BME280;17458;48.958;8.284;2023-05-10T07:25:27;99998.41;;;17.75;73.08
30708;BME280;17458;48.958;8.284;2023-05-10T07:28:11;99994.44;;;18.09;71.59
30708;BME280;17458;48.958;8.284;2023-05-10T07:30:55;100001.22;;;17.84;71.96
30708;BME280;17458;48.958;8.284;2023-05-10T07:33:39;99998.38;;;18.35;71.05
30708;BME280;17458;48.958;8.284;2023-05-10T07:36:23;100004.28;;;18.09;71.69
30708;BME280;17458;48.958;8.284;2023-05-10T07:39:09;100003.19;;;17.94;70.02
30708;BME280;17458;48.958;8.284;2023-05-10T07:41:54;100005.63;;;17.79;70.41
30708;BME280;17458;48.958;8.284;2023-05-10T07:44:38;100015.50;;;18.43;69.97
30708;BME280;17458;48.958;8.284;2023-05-10T07:47:22;100006.06;;;18.76;69.15
30708;BME280;17458;48.958;8.284;2023-05-10T07:50:06;100010.88;;;19.04;69.83
30708;BME280;17458;48.958;8.284;2023-05-10T07:52:51;100013.31;;;18.85;67.74
30708;BME280;17458;48.958;8.284;2023-05-10T07:55:35;100020.56;;;18.89;68.11
30708;BME280;17458;48.958;8.284;2023-05-10T07:58:18;100012.81;;;17.80;70.13
30708;BME280;17458;48.958;8.284;2023-05-10T08:01:02;100013.72;;;17.84;71.11
30708;BME280;17458;48.958;8.284;2023-05-10T08:03:47;100011.00;;;17.79;71.50
30708;BME280;17458;48.958;8.284;2023-05-10T08:06:31;100022.34;;;18.20;70.12
30708;BME280;17458;48.958;8.284;2023-05-10T08:09:15;100014.97;;;18.05;69.82
30708;BME280;17458;48.958;8.284;2023-05-10T08:11:59;100023.56;;;18.43;68.93
30708;BME280;17458;48.958;8.284;2023-05-10T08:14:44;100026.72;;;18.79;68.47
30708;BME280;17458;48.958;8.284;2023-05-10T08:17:28;100016.78;;;18.73;67.07
30708;BME280;17458;48.958;8.284;2023-05-10T08:20:12;100027.97;;;19.12;68.41
30708;BME280;17458;48.958;8.284;2023-05-10T08:22:56;100028.41;;;18.70;65.89
30708;BME280;17458;48.958;8.284;2023-05-10T08:25:40;100026.78;;;18.85;67.99
30708;BME280;17458;48.958;8.284;2023-05-10T08:28:25;100029.34;;;18.72;67.52
30708;BME280;17458;48.958;8.284;2023-05-10T08:31:09;100026.88;;;18.92;65.90
30708;BME280;17458;48.958;8.284;2023-05-10T08:33:53;100025.00;;;18.85;66.88
30708;BME280;17458;48.958;8.284;2023-05-10T08:36:36;100032.19;;;18.86;64.92
30708;BME280;17458;48.958;8.284;2023-05-10T08:39:20;100026.34;;;19.28;64.30
30708;BME280;17458;48.958;8.284;2023-05-10T08:42:05;100029.75;;;19.10;66.38
30708;BME280;17458;48.958;8.284;2023-05-10T08:44:51;100030.75;;;19.20;65.56
30708;BME280;17458;48.958;8.284;2023-05-10T08:47:37;100027.25;;;19.29;64.96
30708;BME280;17458;48.958;8.284;2023-05-10T08:50:22;100030.22;;;19.55;65.08
30708;BME280;17458;48.958;8.284;2023-05-10T08:53:14;100030.78;;;19.22;64.46
30708;BME280;17458;48.958;8.284;2023-05-10T08:56:01;100037.06;;;19.24;63.30
30708;BME280;17458;48.958;8.284;2023-05-10T08:58:47;100046.22;;;19.42;63.78
30708;BME280;17458;48.958;8.284;2023-05-10T09:01:35;100057.69;;;19.23;64.06
30708;BME280;17458;48.958;8.284;2023-05-10T09:04:20;100042.66;;;19.43;62.64
30708;BME280;17458;48.958;8.284;2023-05-10T09:07:06;100049.88;;;19.47;62.69
30708;BME280;17458;48.958;8.284;2023-05-10T09:09:50;100048.97;;;18.64;63.68
30708;BME280;17458;48.958;8.284;2023-05-10T09:12:35;100058.97;;;18.77;62.86
30708;BME280;17458;48.958;8.284;2023-05-10T09:15:19;100054.47;;;18.13;63.23
30708;BME280;17458;48.958;8.284;2023-05-10T09:18:04;100063.47;;;18.15;65.29
30708;BME280;17458;48.958;8.284;2023-05-10T09:20:48;100064.41;;;18.17;66.25
30708;BME280;17458;48.958;8.284;2023-05-10T09:23:33;100066.78;;;17.97;65.66
30708;BME280;17458;48.958;8.284;2023-05-10T09:26:22;100067.44;;;18.42;64.15
30708;BME280;17458;48.958;8.284;2023-05-10T09:29:06;100067.22;;;18.27;63.28
30708;BME280;17458;48.958;8.284;2023-05-10T09:31:52;100065.78;;;18.51;63.50
30708;BME280;17458;48.958;8.284;2023-05-10T09:34:38;100069.59;;;18.04;64.59
30708;BME280;17458;48.958;8.284;2023-05-10T09:37:30;100067.16;;;18.21;63.65
30708;BME280;17458;48.958;8.284;2023-05-10T09:40:25;100065.19;;;18.71;63.30
30708;BME280;17458;48.958;8.284;2023-05-10T09:43:09;100075.06;;;18.72;63.93
30708;BME280;17458;48.958;8.284;2023-05-10T09:45:54;100074.78;;;19.25;60.92
30708;BME280;17458;48.958;8.284;2023-05-10T09:48:43;100076.34;;;19.05;60.04
30708;BME280;17458;48.958;8.284;2023-05-10T09:51:28;100079.66;;;19.60;59.05
30708;BME280;17458;48.958;8.284;2023-05-10T09:54:16;100078.38;;;19.26;57.66
30708;BME280;17458;48.958;8.284;2023-05-10T09:57:00;100086.09;;;19.75;58.49
30708;BME280;17458;48.958;8.284;2023-05-10T09:59:45;100100.06;;;20.39;57.33
30708;BME280;17458;48.958;8.284;2023-05-10T10:02:29;100089.81;;;19.96;56.92
30708;BME280;17458;48.958;8.284;2023-05-10T10:05:14;100092.69;;;20.17;57.17
30708;BME280;17458;48.958;8.284;2023-05-10T10:08:00;100095.47;;;20.29;57.00
30708;BME280;17458;48.958;8.284;2023-05-10T10:10:44;100104.97;;;19.77;57.27
30708;BME280;17458;48.958;8.284;2023-05-10T10:13:30;100103.34;;;20.00;56.65
30708;BME280;17458;48.958;8.284;2023-05-10T10:16:15;100095.50;;;19.32;57.04
30708;BME280;17458;48.958;8.284;2023-05-10T10:19:00;100106.53;;;19.55;56.28
30708;BME280;17458;48.958;8.284;2023-05-10T10:21:44;100108.34;;;19.58;57.10
30708;BME280;17458;48.958;8.284;2023-05-10T10:24:28;100102.81;;;20.47;56.77
30708;BME280;17458;48.958;8.284;2023-05-10T10:27:21;100092.94;;;20.47;55.66
30708;BME280;17458;48.958;8.284;2023-05-10T10:33:30;100088.94;;;19.98;56.83
30708;BME280;17458;48.958;8.284;2023-05-10T10:36:17;100099.13;;;20.36;57.22
30708;BME280;17458;48.958;8.284;2023-05-10T10:39:09;100092.44;;;19.85;56.01
30708;BME280;17458;48.958;8.284;2023-05-10T10:41:55;100095.59;;;19.41;56.20
30708;BME280;17458;48.958;8.284;2023-05-10T10:44:40;100102.44;;;19.98;55.16
30708;BME280;17458;48.958;8.284;2023-05-10T10:47:28;100090.56;;;19.75;56.04
30708;BME280;17458;48.958;8.284;2023-05-10T10:50:15;100092.94;;;20.49;54.71
30708;BME280;17458;48.958;8.284;2023-05-10T10:53:10;100102.63;;;20.26;55.15
30708;BME280;17458;48.958;8.284;2023-05-10T10:56:24;100095.50;;;20.31;52.83
30708;BME280;17458;48.958;8.284;2023-05-10T10:59:08;100101.59;;;20.05;53.76
30708;BME280;17458;48.958;8.284;2023-05-10T11:01:52;100097.66;;;19.67;53.54
30708;BME280;17458;48.958;8.284;2023-05-10T11:04:42;100093.38;;;19.90;53.50
30708;BME280;17458;48.958;8.284;2023-05-10T11:07:27;100099.97;;;19.30;56.22
30708;BME280;17458;48.958;8.284;2023-05-10T11:10:11;100102.28;;;19.81;55.43
30708;BME280;17458;48.958;8.284;2023-05-10T11:13:09;100098.06;;;20.14;54.42
30708;BME280;17458;48.958;8.284;2023-05-10T11:15:54;100098.91;;;20.05;54.15
30708;BME280;17458;48.958;8.284;2023-05-10T11:18:38;100109.78;;;20.17;53.57
30708;BME280;17458;48.958;8.284;2023-05-10T11:21:22;100102.38;;;19.89;51.90
30708;BME280;17458;48.958;8.284;2023-05-10T11:24:13;100090.78;;;20.01;51.96
30708;BME280;17458;48.958;8.284;2023-05-10T11:26:57;100095.66;;;20.53;51.74
30708;BME280;17458;48.958;8.284;2023-05-10T11:29:43;100106.41;;;20.46;51.52
30708;BME280;17458;48.958;8.284;2023-05-10T11:32:26;100096.25;;;20.11;49.87
30708;BME280;17458;48.958;8.284;2023-05-10T11:35:11;100099.97;;;20.29;49.56
30708;BME280;17458;48.958;8.284;2023-05-10T11:37:55;100107.28;;;20.43;49.57
30708;BME280;17458;48.958;8.284;2023-05-10T11:40:40;100105.41;;;20.33;50.32
30708;BME280;17458;48.958;8.284;2023-05-10T11:43:27;100107.28;;;20.45;49.67
30708;BME280;17458;48.958;8.284;2023-05-10T11:46:14;100107.25;;;20.39;48.35
30708;BME280;17458;48.958;8.284;2023-05-10T11:49:00;100121.81;;;20.70;48.53
30708;BME280;17458;48.958;8.284;2023-05-10T11:51:45;100121.59;;;20.35;48.63
30708;BME280;17458;48.958;8.284;2023-05-10T11:54:29;100115.28;;;20.33;48.79
30708;BME280;17458;48.958;8.284;2023-05-10T11:57:15;100119.81;;;20.37;47.32
30708;BME280;17458;48.958;8.284;2023-05-10T12:00:02;100112.78;;;20.62;46.96
30708;BME280;17458;48.958;8.284;2023-05-10T12:02:51;100116.53;;;20.93;46.71
30708;BME280;17458;48.958;8.284;2023-05-10T12:05:35;100117.91;;;20.21;48.29
30708;BME280;17458;48.958;8.284;2023-05-10T12:08:22;100119.31;;;21.12;47.32
30708;BME280;17458;48.958;8.284;2023-05-10T12:11:08;100108.41;;;20.86;47.86
30708;BME280;17458;48.958;8.284;2023-05-10T12:13:55;100105.03;;;21.42;46.50
30708;BME280;17458;48.958;8.284;2023-05-10T12:16:40;100109.59;;;21.81;47.46
30708;BME280;17458;48.958;8.284;2023-05-10T12:19:24;100113.63;;;20.48;46.61
30708;BME280;17458;48.958;8.284;2023-05-10T12:22:08;100123.66;;;20.80;48.07
30708;BME280;17458;48.958;8.284;2023-05-10T12:24:52;100129.06;;;20.80;45.75
30708;BME280;17458;48.958;8.284;2023-05-10T12:27:36;100128.16;;;20.75;45.96
30708;BME280;17458;48.958;8.284;2023-05-10T12:30:25;100126.38;;;20.83;45.82
30708;BME280;17458;48.958;8.284;2023-05-10T12:33:10;100123.50;;;20.48;47.59
30708;BME280;17458;48.958;8.284;2023-05-10T12:35:59;100122.03;;;21.14;45.74
30708;BME280;17458;48.958;8.284;2023-05-10T12:38:46;100116.69;;;21.23;45.54
30708;BME280;17458;48.958;8.284;2023-05-10T12:41:33;100122.25;;;20.03;47.80
30708;BME280;17458;48.958;8.284;2023-05-10T12:44:17;100117.22;;;20.49;47.19
30708;BME280;17458;48.958;8.284;2023-05-10T12:47:01;100120.25;;;21.20;45.27
30708;BME280;17458;48.958;8.284;2023-05-10T12:49:45;100115.00;;;21.86;43.96
30708;BME280;17458;48.958;8.284;2023-05-10T12:52:30;100111.44;;;22.13;43.84
30708;BME280;17458;48.958;8.284;2023-05-10T12:55:15;100118.22;;;20.71;44.23
30708;BME280;17458;48.958;8.284;2023-05-10T12:57:59;100106.63;;;20.85;43.67
30708;BME280;17458;48.958;8.284;2023-05-10T13:00:43;100104.84;;;20.94;43.12
30708;BME280;17458;48.958;8.284;2023-05-10T13:03:28;100103.88;;;20.79;44.35
30708;BME280;17458;48.958;8.284;2023-05-10T13:06:13;100108.53;;;21.14;44.11
30708;BME280;17458;48.958;8.284;2023-05-10T13:08:57;100117.38;;;20.79;45.25
30708;BME280;17458;48.958;8.284;2023-05-10T13:11:41;100099.66;;;21.70;44.02
30708;BME280;17458;48.958;8.284;2023-05-10T13:14:29;100112.28;;;21.77;43.28
30708;BME280;17458;48.958;8.284;2023-05-10T13:17:14;100106.88;;;21.78;43.79
30708;BME280;17458;48.958;8.284;2023-05-10T13:19:57;100102.38;;;21.61;44.00
30708;BME280;17458;48.958;8.284;2023-05-10T13:22:43;100096.91;;;21.35;43.57
30708;BME280;17458;48.958;8.284;2023-05-10T13:25:28;100102.41;;;21.88;43.16
30708;BME280;17458;48.958;8.284;2023-05-10T13:28:12;100104.19;;;21.62;45.08
30708;BME280;17458;48.958;8.284;2023-05-10T13:30:55;100099.66;;;21.45;43.79
30708;BME280;17458;48.958;8.284;2023-05-10T13:33:39;100099.66;;;21.64;45.55
30708;BME280;17458;48.958;8.284;2023-05-10T13:36:23;100101.50;;;22.28;43.18
30708;BME280;17458;48.958;8.284;2023-05-10T13:39:07;100096.97;;;21.82;43.41
30708;BME280;17458;48.958;8.284;2023-05-10T13:41:52;100094.28;;;21.61;44.04
30708;BME280;17458;48.958;8.284;2023-05-10T13:44:35;100086.13;;;21.45;44.30
30708;BME280;17458;48.958;8.284;2023-05-10T13:47:19;100092.47;;;21.75;44.09
30708;BME280;17458;48.958;8.284;2023-05-10T13:50:05;100089.63;;;21.17;44.91
30708;BME280;17458;48.958;8.284;2023-05-10T13:52:49;100086.03;;;21.16;44.39
30708;BME280;17458;48.958;8.284;2023-05-10T13:55:33;100097.72;;;21.14;44.83
30708;BME280;17458;48.958;8.284;2023-05-10T13:58:17;100094.91;;;20.86;45.44
30708;BME280;17458;48.958;8.284;2023-05-10T14:01:01;100091.16;;;20.56;46.30
30708;BME280;17458;48.958;8.284;2023-05-10T14:03:45;100076.91;;;20.84;46.75
30708;BME280;17458;48.958;8.284;2023-05-10T14:06:30;100074.19;;;20.76;46.44
30708;BME280;17458;48.958;8.284;2023-05-10T14:09:14;100076.16;;;21.23;46.53
30708;BME280;17458;48.958;8.284;2023-05-10T14:11:58;100071.63;;;21.13;46.27
30708;BME280;17458;48.958;8.284;2023-05-10T14:14:42;100077.97;;;21.35;45.51
30708;BME280;17458;48.958;8.284;2023-05-10T14:17:26;100078.06;;;21.99;44.95
30708;BME280;17458;48.958;8.284;2023-05-10T14:20:10;100074.44;;;22.25;44.21
30708;BME280;17458;48.958;8.284;2023-05-10T14:22:55;100068.03;;;22.60;44.85
30708;BME280;17458;48.958;8.284;2023-05-10T14:25:42;100070.81;;;22.40;43.83
30708;BME280;17458;48.958;8.284;2023-05-10T14:28:26;100065.41;;;22.34;44.45
30708;BME280;17458;48.958;8.284;2023-05-10T14:31:10;100056.34;;;22.56;42.63
30708;BME280;17458;48.958;8.284;2023-05-10T14:33:54;100070.56;;;23.09;43.64
30708;BME280;17458;48.958;8.284;2023-05-10T14:36:38;100065.28;;;22.87;43.06
30708;BME280;17458;48.958;8.284;2023-05-10T14:39:23;100058.09;;;22.60;44.01
30708;BME280;17458;48.958;8.284;2023-05-10T14:42:07;100064.53;;;22.20;43.26
30708;BME280;17458;48.958;8.284;2023-05-10T14:44:51;100067.19;;;22.46;43.13
30708;BME280;17458;48.958;8.284;2023-05-10T14:47:35;100056.44;;;22.17;44.54